Time;durP1;ratioP1;P1;durP2;ratioP2;P2;SDS_P1;SDS_P2;PMS_P1;PMS_P2;Temp;Humidity;BMP_temperature;BMP_pressure;BME280_temperature;BME280_humidity;BME280_pressure;Samples;Min_cycle;Max_cycle;Signal;HPM_P1;HPM_P2
2023/10/11 00:00:34;;;;;;;10.65;6.63;;;15.90;99.90;;;;;;5052921;28;20037;-67
2023/10/11 00:05:47;;;;;;;12.73;7.38;;;15.90;99.90;;;;;;5054872;28;20037;-66
2023/10/11 00:08:18;;;;;;;12.88;7.13;;;15.90;99.90;;;;;;5052856;28;20123;-67
2023/10/11 00:11:01;;;;;;;15.48;7.65;;;15.90;99.90;;;;;;5052378;28;20043;-67
2023/10/11 00:13:32;;;;;;;15.05;7.50;;;15.90;99.90;;;;;;5051900;28;20040;-68
2023/10/11 00:16:07;;;;;;;13.98;8.20;;;15.90;99.90;;;;;;5038217;28;20091;-74
2023/10/11 00:18:34;;;;;;;13.43;7.88;;;15.90;99.90;;;;;;5044433;28;20051;-72
2023/10/11 00:21:09;;;;;;;14.40;7.95;;;15.90;99.90;;;;;;5041597;28;20041;-71
2023/10/11 00:23:36;;;;;;;13.85;7.75;;;15.90;99.90;;;;;;5058994;28;20047;-70
2023/10/11 00:26:06;;;;;;;13.93;8.07;;;15.90;99.90;;;;;;5058330;28;20146;-69
2023/10/11 00:28:33;;;;;;;13.45;8.43;;;15.90;99.90;;;;;;5051591;28;20055;-67
2023/10/11 00:31:01;;;;;;;16.13;8.88;;;15.90;99.90;;;;;;5051275;28;20037;-68
2023/10/11 00:33:28;;;;;;;13.88;8.57;;;15.90;99.90;;;;;;5035086;28;20048;-68
2023/10/11 00:35:55;;;;;;;16.45;9.00;;;15.90;99.90;;;;;;5051888;28;20057;-74
2023/10/11 00:38:27;;;;;;;14.43;8.40;;;15.90;99.90;;;;;;5039243;28;20084;-74
2023/10/11 00:41:07;;;;;;;14.80;8.75;;;15.90;99.90;;;;;;5023029;28;20496;-74
2023/10/11 00:43:34;;;;;;;17.35;8.88;;;15.90;99.90;;;;;;5055333;28;20041;-72
2023/10/11 00:46:05;;;;;;;17.90;8.85;;;15.80;99.90;;;;;;5039008;28;20037;-72
2023/10/11 00:48:31;;;;;;;16.77;9.27;;;15.80;99.90;;;;;;5038801;28;20048;-73
2023/10/11 00:50:57;;;;;;;18.10;9.10;;;15.80;99.90;;;;;;5038511;28;20126;-71
2023/10/11 00:53:26;;;;;;;18.52;9.85;;;15.80;99.90;;;;;;5055424;28;20047;-72
2023/10/11 00:55:57;;;;;;;14.73;9.32;;;15.80;99.90;;;;;;5055611;28;20056;-73
2023/10/11 00:58:23;;;;;;;15.35;9.32;;;15.70;99.90;;;;;;5054879;28;20459;-71
2023/10/11 01:00:52;;;;;;;14.77;9.30;;;15.70;99.90;;;;;;5038124;28;20037;-73
2023/10/11 01:03:21;;;;;;;16.63;10.27;;;15.70;99.90;;;;;;5054750;28;20037;-73
2023/10/11 01:05:48;;;;;;;14.57;9.45;;;15.70;99.90;;;;;;5038100;28;20041;-72
2023/10/11 01:08:14;;;;;;;19.83;10.30;;;15.70;99.90;;;;;;5038163;28;20039;-73
2023/10/11 01:10:45;;;;;;;16.42;9.75;;;15.70;99.90;;;;;;5054794;28;20120;-73
2023/10/11 01:13:15;;;;;;;18.98;10.35;;;15.70;99.90;;;;;;5038793;28;20037;-74
2023/10/11 01:15:42;;;;;;;16.55;10.18;;;15.70;99.90;;;;;;5022210;28;20052;-73
2023/10/11 01:18:08;;;;;;;18.70;10.48;;;15.70;99.90;;;;;;5054395;28;20067;-74
2023/10/11 01:20:40;;;;;;;16.73;10.82;;;15.70;99.90;;;;;;5021284;28;20075;-74
2023/10/11 01:23:06;;;;;;;;;;;15.60;99.90;;;;;;5039044;28;20564;-73
2023/10/11 01:25:33;;;;;;;16.58;10.90;;;15.70;99.90;;;;;;5054259;28;20003;-68
2023/10/11 01:28:00;;;;;;;18.30;11.07;;;15.70;99.90;;;;;;5054336;28;20037;-67
2023/10/11 01:30:27;;;;;;;17.35;10.95;;;15.70;99.90;;;;;;5037512;28;20443;-68
2023/10/11 01:32:55;;;;;;;15.57;10.80;;;15.70;99.90;;;;;;5037291;28;20076;-68
2023/10/11 01:35:21;;;;;;;19.08;11.30;;;15.70;99.90;;;;;;5037100;28;20048;-68
2023/10/11 01:37:49;;;;;;;19.17;11.77;;;15.70;99.90;;;;;;5054083;28;20044;-68
2023/10/11 01:40:20;;;;;;;18.35;10.85;;;15.60;99.90;;;;;;5037284;28;20044;-67
2023/10/11 01:42:49;;;;;;;;;;;15.60;99.90;;;;;;5054149;28;20039;-68
2023/10/11 01:45:17;;;;;;;20.30;11.60;;;15.60;99.90;;;;;;5020885;28;19916;-68
2023/10/11 01:47:46;;;;;;;17.48;11.43;;;15.60;99.90;;;;;;5036732;28;20041;-67
2023/10/11 01:50:16;;;;;;;17.77;11.50;;;15.60;99.90;;;;;;5053439;28;20052;-67
2023/10/11 01:52:43;;;;;;;15.98;11.30;;;15.60;99.90;;;;;;5053767;28;20497;-67
2023/10/11 01:55:15;;;;;;;20.63;11.95;;;15.60;99.90;;;;;;5037195;28;20489;-68
2023/10/11 01:57:48;;;;;;;;;;;15.60;99.90;;;;;;5037287;28;20072;-67
2023/10/11 02:00:28;;;;;;;18.63;12.00;;;15.50;99.90;;;;;;5036727;28;19925;-68
2023/10/11 02:02:58;;;;;;;19.17;11.75;;;15.50;99.90;;;;;;5038204;28;20095;-68
2023/10/11 02:05:24;;;;;;;20.25;12.73;;;15.50;99.90;;;;;;5036719;28;20037;-68
2023/10/11 02:07:51;;;;;;;19.23;12.50;;;15.50;99.90;;;;;;5036563;28;20125;-66
2023/10/11 02:10:28;;;;;;;21.08;13.20;;;15.40;99.90;;;;;;5053288;28;20056;-67
2023/10/11 02:12:57;;;;;;;19.88;12.23;;;15.40;99.90;;;;;;5053546;28;20081;-67
2023/10/11 02:15:30;;;;;;;18.08;12.27;;;15.40;99.90;;;;;;5037247;28;20500;-67
2023/10/11 02:17:58;;;;;;;21.10;13.15;;;15.40;99.90;;;;;;5021660;28;20037;-67
2023/10/11 02:20:24;;;;;;;20.55;12.68;;;15.40;99.90;;;;;;5019891;28;20090;-67
2023/10/11 02:22:51;;;;;;;20.23;12.95;;;15.40;99.90;;;;;;5036330;28;20041;-69
2023/10/11 02:25:19;;;;;;;20.15;13.27;;;15.40;99.90;;;;;;5052957;28;20041;-67
2023/10/11 02:27:49;;;;;;;18.55;12.98;;;15.30;99.90;;;;;;5036554;28;20041;-68
2023/10/11 02:30:20;;;;;;;18.00;12.73;;;15.30;99.90;;;;;;5036840;28;20040;-67
2023/10/11 02:32:58;;;;;;;18.75;12.68;;;15.30;99.90;;;;;;5052881;28;20064;-68
2023/10/11 02:35:29;;;;;;;20.27;13.60;;;15.30;99.90;;;;;;5052870;28;20452;-67
2023/10/11 02:38:02;;;;;;;19.23;12.90;;;15.20;99.90;;;;;;5052853;28;20064;-66
2023/10/11 02:40:30;;;;;;;20.25;13.73;;;15.20;99.90;;;;;;5020631;28;20043;-67
2023/10/11 02:42:56;;;;;;;22.35;13.93;;;15.20;99.90;;;;;;5035989;28;20037;-67
2023/10/11 02:45:25;;;;;;;20.23;13.27;;;15.20;99.90;;;;;;5036508;28;20100;-68
2023/10/11 02:48:02;;;;;;;21.02;13.57;;;15.20;99.90;;;;;;5035906;28;20040;-68
2023/10/11 02:50:36;;;;;;;22.50;13.57;;;15.20;99.90;;;;;;5052766;28;20071;-67
2023/10/11 02:53:20;;;;;;;20.42;13.82;;;15.10;99.90;;;;;;5052423;28;20059;-68
2023/10/11 02:55:47;;;;;;;21.75;14.50;;;15.10;99.90;;;;;;5038348;28;20041;-68
2023/10/11 02:58:21;;;;;;;19.90;13.38;;;15.00;99.90;;;;;;5019643;28;20143;-68
2023/10/11 03:00:47;;;;;;;21.27;13.80;;;15.00;99.90;;;;;;5052447;28;20052;-68
2023/10/11 03:03:15;;;;;;;19.70;13.80;;;15.00;99.90;;;;;;5052206;28;20045;-67
2023/10/11 03:05:45;;;;;;;23.23;12.68;;;14.90;99.90;;;;;;5035950;28;20045;-68
2023/10/11 03:08:15;;;;;;;22.05;13.35;;;14.90;99.90;;;;;;5052409;28;20032;-68
2023/10/11 03:10:53;;;;;;;22.98;13.00;;;14.90;99.90;;;;;;5052260;28;20044;-68
2023/10/11 03:13:24;;;;;;;20.38;13.90;;;14.90;99.90;;;;;;5020694;28;20051;-66
2023/10/11 03:15:56;;;;;;;23.77;14.52;;;14.90;99.90;;;;;;5052225;28;20041;-66
2023/10/11 03:18:32;;;;;;;;;;;14.90;99.90;;;;;;5036294;28;20044;-67
2023/10/11 03:21:19;;;;;;;22.42;14.65;;;14.90;99.90;;;;;;5019303;28;19923;-69
2023/10/11 03:23:47;;;;;;;22.90;14.48;;;14.90;99.90;;;;;;5035639;28;20048;-68
2023/10/11 03:26:18;;;;;;;23.65;13.98;;;14.90;99.90;;;;;;5035364;28;20048;-68
2023/10/11 03:28:56;;;;;;;24.48;14.15;;;14.90;99.90;;;;;;5035356;28;20037;-68
2023/10/11 03:31:24;;;;;;;20.75;13.63;;;14.80;99.90;;;;;;5020700;28;20501;-66
2023/10/11 03:33:50;;;;;;;26.02;15.07;;;14.80;99.90;;;;;;5035174;28;20124;-68
2023/10/11 03:36:20;;;;;;;23.33;14.38;;;14.80;99.90;;;;;;5051865;28;20608;-68
2023/10/11 03:38:51;;;;;;;22.77;14.32;;;14.80;99.90;;;;;;5019298;28;20053;-68
2023/10/11 03:41:23;;;;;;;21.27;13.50;;;14.80;99.90;;;;;;5035982;28;20045;-67
2023/10/11 03:44:17;;;;;;;23.10;14.85;;;14.80;99.90;;;;;;5036535;28;20068;-68
2023/10/11 03:46:47;;;;;;;20.38;14.00;;;14.80;99.90;;;;;;5035136;28;20041;-68
2023/10/11 03:51:48;;;;;;;23.30;14.50;;;14.70;99.90;;;;;;5051852;28;20507;-68
2023/10/11 03:54:23;;;;;;;21.00;14.95;;;14.70;99.90;;;;;;5018842;28;20056;-67
2023/10/11 03:56:53;;;;;;;22.13;13.77;;;14.70;99.90;;;;;;5051797;28;20041;-72
2023/10/11 03:59:26;;;;;;;25.05;14.50;;;14.70;99.90;;;;;;5051759;28;20045;-73
2023/10/11 04:01:53;;;;;;;23.00;14.50;;;14.60;99.90;;;;;;5051892;28;20059;-72
2023/10/11 04:04:25;;;;;;;26.30;15.25;;;14.60;99.90;;;;;;5051627;28;20043;-72
2023/10/11 04:06:51;;;;;;;23.17;14.50;;;14.60;99.90;;;;;;5019910;28;20487;-72
2023/10/11 04:09:33;;;;;;;25.05;14.95;;;14.60;99.90;;;;;;5035381;28;20064;-72
2023/10/11 04:12:03;;;;;;;22.05;13.55;;;14.60;99.90;;;;;;5053458;28;20037;-73
2023/10/11 04:14:39;;;;;;;22.45;14.63;;;14.60;99.90;;;;;;5038807;28;20044;-73
2023/10/11 04:19:49;;;;;;;22.48;14.73;;;14.70;99.90;;;;;;5039104;28;20044;-73
2023/10/11 04:22:23;;;;;;;21.42;14.20;;;14.70;99.90;;;;;;5055518;28;20481;-73
2023/10/11 04:24:53;;;;;;;19.60;14.02;;;14.70;99.90;;;;;;5055595;28;20500;-72
2023/10/11 04:29:50;;;;;;;22.60;14.15;;;14.70;99.90;;;;;;5055464;28;20055;-67
2023/10/11 04:32:40;;;;;;;22.38;14.20;;;14.70;99.90;;;;;;5055144;28;20049;-68
2023/10/11 04:35:21;;;;;;;19.65;12.85;;;14.70;99.90;;;;;;5054773;28;20124;-66
2023/10/11 04:37:54;;;;;;;19.63;13.85;;;14.80;99.90;;;;;;5039267;28;20060;-73
2023/10/11 04:43:08;;;;;;;19.85;13.70;;;14.80;99.90;;;;;;5056269;28;20090;-72
2023/10/11 04:45:44;;;;;;;20.80;13.85;;;14.80;99.90;;;;;;5038808;28;20041;-72
2023/10/11 04:48:48;;;;;;;20.20;13.30;;;14.80;99.90;;;;;;5039199;28;20040;-72
2023/10/11 04:59:07;;;;;;;21.27;13.60;;;14.70;99.90;;;;;;5054838;28;20105;-72
2023/10/11 05:04:16;;;;;;;19.05;12.77;;;14.70;99.90;;;;;;5055054;28;20098;-74
2023/10/11 05:06:43;;;;;;;22.17;13.15;;;14.70;99.90;;;;;;5038243;28;20122;-73
2023/10/11 05:09:31;;;;;;;21.30;12.93;;;14.70;99.90;;;;;;5054703;28;20068;-73
2023/10/11 05:27:56;;;;;;;22.15;14.00;;;14.60;99.90;;;;;;5054469;28;20124;-73
2023/10/11 05:52:25;;;;;;;25.27;15.13;;;14.50;99.90;;;;;;5053838;28;20045;-75
2023/10/11 05:54:53;;;;;;;24.52;15.32;;;14.50;99.90;;;;;;5053840;28;20130;-74
2023/10/11 05:57:23;;;;;;;24.17;15.15;;;14.50;99.90;;;;;;5053770;28;20041;-73
2023/10/11 05:59:52;;;;;;;22.23;15.27;;;14.50;99.90;;;;;;5053602;28;20049;-72
2023/10/11 06:02:22;;;;;;;23.92;16.55;;;14.50;99.90;;;;;;5053344;28;20051;-73
2023/10/11 06:04:51;;;;;;;26.23;15.63;;;14.50;99.90;;;;;;5053827;28;20041;-73
2023/10/11 06:07:19;;;;;;;25.98;15.85;;;14.50;99.90;;;;;;5020983;28;20361;-72
2023/10/11 06:09:52;;;;;;;25.73;15.43;;;14.50;99.90;;;;;;5053904;28;20127;-71
2023/10/11 06:12:29;;;;;;;25.75;16.23;;;14.50;99.90;;;;;;5053768;28;20037;-72
2023/10/11 06:14:56;;;;;;;24.70;15.80;;;14.50;99.90;;;;;;5053403;28;20094;-72
2023/10/11 06:17:41;;;;;;;26.65;18.05;;;14.50;99.90;;;;;;5036870;28;20074;-67
2023/10/11 06:20:29;;;;;;;30.00;18.05;;;14.50;99.90;;;;;;5053132;28;20041;-68
2023/10/11 06:23:04;;;;;;;29.05;18.27;;;14.50;99.90;;;;;;5037941;28;20404;-68
2023/10/11 06:25:49;;;;;;;26.15;17.77;;;14.50;99.90;;;;;;5053318;28;20048;-70
2023/10/11 06:28:16;;;;;;;26.00;17.95;;;14.50;99.90;;;;;;5036303;28;20073;-67
2023/10/11 06:30:43;;;;;;;31.05;18.35;;;14.60;99.90;;;;;;5036455;28;20215;-68
2023/10/11 06:33:13;;;;;;;25.50;17.13;;;14.60;99.90;;;;;;5053339;28;20083;-69
2023/10/11 06:35:49;;;;;;;30.77;18.88;;;14.60;99.90;;;;;;5036733;28;20505;-67
2023/10/11 06:38:18;;;;;;;30.00;17.80;;;14.60;99.90;;;;;;5052764;28;20406;-68
2023/10/11 06:40:48;;;;;;;27.90;18.90;;;14.60;99.90;;;;;;5053021;28;20043;-67
2023/10/11 06:43:23;;;;;;;30.35;18.40;;;14.70;99.90;;;;;;5053023;28;20501;-67
2023/10/11 06:45:52;;;;;;;28.60;18.70;;;14.70;99.90;;;;;;5020869;28;20052;-68
2023/10/11 06:48:22;;;;;;;28.92;19.75;;;14.70;99.90;;;;;;5052694;28;20110;-66
2023/10/11 06:50:55;;;;;;;32.92;19.60;;;14.80;99.90;;;;;;5036242;28;20481;-68
2023/10/11 06:53:21;;;;;;;30.05;19.15;;;14.80;99.90;;;;;;5003527;28;20047;-67
2023/10/11 06:55:50;;;;;;;29.63;19.70;;;14.80;99.90;;;;;;5036043;28;20544;-67
2023/10/11 06:58:19;;;;;;;30.92;19.70;;;14.90;99.90;;;;;;5020364;28;20041;-67
2023/10/11 07:00:53;;;;;;;34.33;20.67;;;14.90;99.90;;;;;;5004318;28;20497;-68
2023/10/11 07:05:56;;;;;;;;;;;15.00;99.90;;;;;;5053668;28;20052;-67
2023/10/11 07:08:31;;;;;;;31.53;20.50;;;15.10;99.90;;;;;;5052980;28;19921;-66
2023/10/11 07:11:16;;;;;;;31.85;20.67;;;15.20;99.90;;;;;;5021509;28;20124;-66
2023/10/11 07:14:14;;;;;;;30.50;20.40;;;15.20;99.90;;;;;;5053976;28;20314;-66
2023/10/11 07:16:44;;;;;;;35.83;20.13;;;15.30;99.90;;;;;;5053105;28;20099;-67
2023/10/11 07:19:11;;;;;;;33.03;20.13;;;15.30;99.90;;;;;;5053057;28;20037;-68
2023/10/11 07:27:09;;;;;;;31.02;20.35;;;15.40;99.90;;;;;;5052540;28;20397;-68
2023/10/11 07:29:45;;;;;;;31.50;20.90;;;15.50;99.90;;;;;;5034971;28;20059;-67
2023/10/11 07:32:21;;;;;;;35.08;20.92;;;15.50;99.90;;;;;;5035296;28;20131;-69
2023/10/11 07:34:54;;;;;;;36.85;21.13;;;15.50;99.90;;;;;;5052087;28;20162;-67
2023/10/11 07:37:26;;;;;;;31.10;21.67;;;15.50;99.90;;;;;;5004363;28;20521;-68
2023/10/11 07:40:00;;;;;;;32.75;21.25;;;15.60;99.90;;;;;;5019561;28;20091;-66
2023/10/11 07:42:26;;;;;;;35.20;22.20;;;15.60;99.90;;;;;;5020220;28;20508;-67
2023/10/11 07:44:52;;;;;;;33.83;21.85;;;15.70;99.90;;;;;;5051612;28;20055;-67
2023/10/11 07:47:18;;;;;;;37.15;22.88;;;15.80;99.90;;;;;;5050830;28;20490;-68
2023/10/11 07:49:45;;;;;;;36.85;22.98;;;15.80;99.90;;;;;;5035367;28;20041;-67
2023/10/11 07:52:18;;;;;;;34.85;22.42;;;15.90;99.90;;;;;;5051865;28;20486;-68
2023/10/11 07:54:57;;;;;;;35.90;22.25;;;15.90;99.90;;;;;;5052913;28;20055;-66
2023/10/11 07:57:28;;;;;;;39.28;24.25;;;15.90;99.90;;;;;;5051532;28;20041;-68
2023/10/11 07:59:54;;;;;;;45.55;24.42;;;15.90;99.90;;;;;;5035468;28;20068;-68
2023/10/11 08:02:26;;;;;;;38.58;24.35;;;16.00;99.90;;;;;;5035223;28;20087;-68
2023/10/11 08:05:12;;;;;;;38.67;23.65;;;16.00;99.90;;;;;;5036104;28;20128;-69
2023/10/11 08:07:40;;;;;;;38.35;24.98;;;16.10;99.90;;;;;;5051700;28;20045;-67
2023/10/11 08:12:54;;;;;;;38.30;24.42;;;16.20;99.90;;;;;;5051440;28;20041;-68
2023/10/11 08:15:22;;;;;;;37.08;24.05;;;16.20;99.90;;;;;;5035129;28;20053;-68
2023/10/11 08:17:51;;;;;;;42.17;25.55;;;16.20;99.90;;;;;;5035085;28;20128;-67
2023/10/11 08:20:17;;;;;;;41.78;25.40;;;16.20;99.90;;;;;;5051318;28;20045;-68
2023/10/11 08:22:47;;;;;;;42.08;25.50;;;16.20;99.90;;;;;;5034770;28;20055;-68
2023/10/11 08:25:16;;;;;;;38.33;25.10;;;16.20;99.90;;;;;;5051607;28;20409;-67
2023/10/11 08:27:42;;;;;;;38.70;25.45;;;16.30;99.90;;;;;;5051456;28;20052;-68
2023/10/11 08:32:42;;;;;;;40.88;25.95;;;16.30;99.90;;;;;;5051638;28;20040;-68
2023/10/11 08:35:10;;;;;;;43.22;27.15;;;16.30;99.90;;;;;;5052655;28;20435;-67
2023/10/11 08:37:40;;;;;;;47.83;28.13;;;16.30;99.90;;;;;;5051576;28;20132;-73
2023/10/11 08:40:34;;;;;;;48.33;29.23;;;16.40;99.90;;;;;;5019148;28;20456;-73
2023/10/11 08:43:02;;;;;;;45.95;28.80;;;16.40;99.90;;;;;;5039317;28;20468;-72
2023/10/11 08:45:32;;;;;;;47.20;29.25;;;16.40;99.90;;;;;;5034984;28;20037;-72
2023/10/11 08:48:08;;;;;;;49.38;30.30;;;16.40;99.90;;;;;;5035260;28;20374;-69
2023/10/11 08:50:35;;;;;;;48.22;29.80;;;16.40;99.90;;;;;;5034514;28;20098;-67
2023/10/11 08:53:10;;;;;;;45.05;28.88;;;16.50;99.90;;;;;;5051187;28;20049;-68
2023/10/11 08:55:40;;;;;;;46.70;29.73;;;16.50;99.90;;;;;;5050974;28;20037;-68
2023/10/11 08:58:12;;;;;;;48.17;30.33;;;16.60;99.90;;;;;;5052289;28;20507;-69
2023/10/11 09:00:38;;;;;;;;;;;16.50;99.90;;;;;;5054936;28;20053;-68
2023/10/11 09:03:22;;;;;;;48.65;31.38;;;16.50;99.90;;;;;;5054956;28;19923;-67
2023/10/11 09:05:58;;;;;;;52.40;31.05;;;16.50;99.90;;;;;;5054502;28;20037;-67
2023/10/11 09:08:35;;;;;;;52.17;31.70;;;16.50;99.90;;;;;;5038608;28;20124;-68
2023/10/11 09:11:12;;;;;;;52.63;31.50;;;16.50;99.90;;;;;;5023307;28;20037;-68
2023/10/11 09:13:38;;;;;;;62.10;35.28;;;16.50;99.90;;;;;;5054382;28;20037;-67
2023/10/11 09:16:14;;;;;;;48.53;31.52;;;16.50;99.90;;;;;;5054680;28;20135;-68
2023/10/11 09:19:05;;;;;;;50.55;30.60;;;16.50;99.90;;;;;;5054351;28;20106;-68
2023/10/11 09:21:35;;;;;;;51.45;29.83;;;16.40;99.90;;;;;;5054252;28;20037;-67
2023/10/11 09:24:03;;;;;;;50.95;30.20;;;16.50;99.90;;;;;;5021612;28;20037;-67
2023/10/11 09:26:32;;;;;;;52.40;33.40;;;16.50;99.90;;;;;;5054162;28;20052;-67
2023/10/11 09:29:03;;;;;;;55.75;34.50;;;16.50;99.90;;;;;;5054369;28;20051;-68
2023/10/11 09:31:32;;;;;;;58.17;34.28;;;16.50;99.90;;;;;;5037643;28;20481;-67
2023/10/11 09:34:00;;;;;;;51.63;32.78;;;16.50;99.90;;;;;;5037361;28;20102;-68
2023/10/11 09:36:28;;;;;;;52.40;31.50;;;16.50;99.90;;;;;;5053961;28;20053;-68
2023/10/11 09:39:04;;;;;;;55.97;33.28;;;16.50;99.90;;;;;;5037171;28;20045;-68
2023/10/11 09:41:40;;;;;;;50.20;32.25;;;16.50;99.90;;;;;;5054145;28;20397;-68
2023/10/11 09:44:10;;;;;;;55.17;31.85;;;16.50;99.90;;;;;;5054072;28;20124;-68
2023/10/11 09:46:37;;;;;;;46.35;29.73;;;16.50;99.90;;;;;;5037985;28;20552;-69
2023/10/11 09:49:13;;;;;;;49.10;29.40;;;16.50;99.90;;;;;;5053656;28;20044;-68
2023/10/11 09:51:43;;;;;;;46.78;28.40;;;16.50;99.90;;;;;;5053889;28;20592;-68
2023/10/11 09:54:13;;;;;;;44.67;27.75;;;16.60;99.90;;;;;;5053836;28;20083;-68
2023/10/11 09:56:51;;;;;;;46.20;27.42;;;16.60;99.90;;;;;;5053940;28;20106;-73
2023/10/11 09:59:59;;;;;;;44.22;25.95;;;16.70;99.90;;;;;;5054004;28;20041;-74
2023/10/11 10:02:39;;;;;;;47.00;26.33;;;16.70;99.90;;;;;;5037525;28;20028;-74
2023/10/11 10:05:06;;;;;;;41.65;25.20;;;16.70;99.90;;;;;;5053438;28;20089;-73
2023/10/11 10:10:08;;;;;;;47.33;26.88;;;16.80;99.90;;;;;;5052514;28;20095;-74
2023/10/11 10:12:40;;;;;;;42.55;26.73;;;16.90;99.90;;;;;;5053539;28;20040;-73
2023/10/11 10:15:09;;;;;;;42.05;25.45;;;16.90;99.90;;;;;;5020520;28;20046;-74
2023/10/11 10:17:37;;;;;;;42.83;26.88;;;16.80;99.90;;;;;;5053133;28;20064;-72
2023/10/11 10:20:41;;;;;;;44.65;27.45;;;16.80;99.90;;;;;;5036638;28;20083;-73
2023/10/11 10:23:26;;;;;;;44.33;26.25;;;16.90;99.90;;;;;;5036660;28;20033;-73
2023/10/11 10:26:24;;;;;;;42.35;25.42;;;16.90;99.90;;;;;;5053859;28;20041;-73
2023/10/11 10:28:57;;;;;;;35.92;21.42;;;16.90;99.90;;;;;;5012394;28;20053;-71
2023/10/11 10:31:24;;;;;;;37.30;22.55;;;16.90;99.90;;;;;;5037675;28;20053;-71
2023/10/11 10:34:32;;;;;;;36.50;21.55;;;17.00;99.90;;;;;;5055117;28;20385;-71
2023/10/11 10:37:01;;;;;;;39.40;20.50;;;17.10;99.90;;;;;;5053302;28;20064;-73
2023/10/11 10:39:46;;;;;;;39.45;21.42;;;17.20;99.90;;;;;;5021211;28;20477;-72
2023/10/11 10:42:13;;;;;;;38.38;21.10;;;17.20;99.90;;;;;;5036827;28;20528;-71
2023/10/11 10:44:49;;;;;;;31.25;19.13;;;17.30;99.90;;;;;;5004716;28;20511;-73
2023/10/11 10:47:32;;;;;;;34.95;19.88;;;17.40;99.90;;;;;;5020770;28;20041;-71
2023/10/11 10:50:06;;;;;;;32.67;21.75;;;17.50;99.90;;;;;;5070055;28;20412;-72
2023/10/11 10:52:34;;;;;;;30.77;20.08;;;17.50;99.90;;;;;;5038081;28;20099;-73
2023/10/11 10:55:05;;;;;;;34.67;19.90;;;17.60;99.90;;;;;;5021040;28;20084;-72
2023/10/11 10:57:38;;;;;;;28.67;19.30;;;17.70;99.90;;;;;;5053053;28;20044;-74
2023/10/11 11:00:21;;;;;;;29.55;18.45;;;17.70;99.90;;;;;;5036298;28;20041;-72
2023/10/11 11:02:56;;;;;;;33.42;19.77;;;17.70;99.90;;;;;;5052529;28;20108;-73
2023/10/11 11:05:29;;;;;;;30.92;17.92;;;17.80;99.90;;;;;;5036290;28;20075;-72
2023/10/11 11:08:19;;;;;;;29.83;17.70;;;17.90;99.90;;;;;;5036953;28;20033;-69
2023/10/11 11:10:54;;;;;;;27.40;17.20;;;18.00;99.90;;;;;;5052391;28;20084;-69
2023/10/11 11:13:25;;;;;;;27.23;16.10;;;18.10;99.90;;;;;;5035866;28;20041;-68
2023/10/11 11:15:57;;;;;;;26.97;15.50;;;18.20;99.90;;;;;;5052298;28;20045;-68
2023/10/11 11:18:31;;;;;;;24.00;15.07;;;18.30;99.90;;;;;;5036135;28;20063;-68
2023/10/11 11:21:00;;;;;;;23.65;14.35;;;18.40;99.90;;;;;;5035673;28;20039;-68
2023/10/11 11:23:31;;;;;;;25.10;14.23;;;18.60;99.90;;;;;;5036214;28;20056;-68
2023/10/11 11:26:00;;;;;;;24.80;12.55;;;18.60;99.90;;;;;;5052260;28;20477;-68
2023/10/11 11:28:27;;;;;;;20.27;12.18;;;18.70;99.90;;;;;;5052196;28;20454;-68
2023/10/11 11:31:03;;;;;;;21.67;12.18;;;18.70;99.90;;;;;;5051949;28;20076;-69
2023/10/11 11:33:35;;;;;;;20.65;11.23;;;18.80;99.90;;;;;;5052047;28;20083;-68
2023/10/11 11:36:10;;;;;;;15.98;10.50;;;18.80;99.90;;;;;;5051757;28;20045;-68
2023/10/11 11:38:46;;;;;;;17.50;9.90;;;18.90;99.90;;;;;;5036255;28;20041;-68
2023/10/11 11:41:16;;;;;;;18.00;9.88;;;19.00;99.90;;;;;;5051842;28;20123;-67
2023/10/11 11:43:42;;;;;;;17.20;8.80;;;19.10;99.90;;;;;;5035875;28;20045;-68
2023/10/11 11:46:09;;;;;;;15.07;8.27;;;19.20;99.90;;;;;;5051745;28;20073;-68
2023/10/11 11:48:42;;;;;;;16.08;8.13;;;19.20;99.90;;;;;;5002931;28;20124;-68
2023/10/11 11:51:13;;;;;;;14.55;7.85;;;19.10;99.90;;;;;;5051667;28;20041;-68
2023/10/11 11:53:51;;;;;;;16.50;8.18;;;19.10;99.90;;;;;;5035146;28;20128;-68
2023/10/11 11:56:27;;;;;;;15.52;8.38;;;19.00;99.90;;;;;;5052021;28;20220;-69
2023/10/11 11:59:00;;;;;;;13.00;7.30;;;19.00;99.90;;;;;;5051419;28;20103;-68
2023/10/11 12:01:26;;;;;;;15.00;7.57;;;19.00;99.90;;;;;;5052087;28;20045;-68
2023/10/11 12:03:53;;;;;;;15.23;7.80;;;19.00;99.90;;;;;;5035582;28;20128;-68
2023/10/11 12:06:23;;;;;;;16.30;7.95;;;19.00;99.90;;;;;;5019827;28;20125;-67
2023/10/11 12:08:57;;;;;;;15.98;8.20;;;19.00;99.90;;;;;;5035343;28;20440;-69
2023/10/11 12:11:30;;;;;;;13.43;8.10;;;19.00;99.90;;;;;;5035121;28;20123;-68
2023/10/11 12:13:58;;;;;;;15.30;8.13;;;19.00;99.90;;;;;;5051609;28;20450;-68
2023/10/11 12:16:28;;;;;;;16.27;7.60;;;19.10;99.90;;;;;;5019632;28;20496;-68
2023/10/11 12:19:00;;;;;;;15.98;7.32;;;19.20;99.90;;;;;;5050944;28;20049;-67
2023/10/11 12:21:27;;;;;;;14.60;7.38;;;19.20;99.90;;;;;;5019314;28;20099;-68
2023/10/11 12:23:53;;;;;;;13.93;6.30;;;19.30;99.90;;;;;;5035007;28;20041;-68
2023/10/11 12:26:20;;;;;;;14.00;6.28;;;19.30;99.90;;;;;;5051289;28;20037;-68
2023/10/11 12:28:47;;;;;;;13.48;6.00;;;19.30;99.90;;;;;;5035126;28;20119;-68
2023/10/11 12:31:13;;;;;;;11.93;6.07;;;19.40;99.90;;;;;;5051377;28;20106;-68
2023/10/11 12:33:40;;;;;;;11.23;5.60;;;19.40;99.90;;;;;;5054202;28;20041;-68
2023/10/11 12:36:06;;;;;;;10.45;5.03;;;19.50;99.90;;;;;;5054809;28;20083;-67
2023/10/11 12:38:39;;;;;;;13.77;5.40;;;19.50;99.90;;;;;;5038563;28;20045;-67
2023/10/11 12:41:07;;;;;;;10.88;4.90;;;19.60;99.90;;;;;;5054962;28;20044;-67
2023/10/11 12:43:33;;;;;;;11.93;5.38;;;19.50;99.90;;;;;;5055187;28;20045;-68
2023/10/11 12:46:00;;;;;;;12.32;5.32;;;19.50;99.90;;;;;;5038422;28;20041;-69
2023/10/11 12:48:31;;;;;;;12.00;5.60;;;19.50;99.90;;;;;;5038260;28;20120;-68
2023/10/11 12:51:00;;;;;;;11.73;6.07;;;19.50;99.90;;;;;;5006152;28;20499;-67
2023/10/11 12:53:35;;;;;;;13.20;6.07;;;19.50;99.90;;;;;;5022040;28;20073;-68
2023/10/11 12:56:01;;;;;;;12.60;6.00;;;19.50;99.90;;;;;;5022678;28;20048;-68
2023/10/11 12:58:39;;;;;;;13.75;6.03;;;19.50;99.90;;;;;;5021449;28;20041;-69
2023/10/11 13:01:11;;;;;;;13.38;5.88;;;19.60;99.90;;;;;;5023178;28;20108;-67
2023/10/11 13:03:38;;;;;;;11.32;6.05;;;19.60;99.90;;;;;;5054820;28;20382;-67
2023/10/11 13:06:05;;;;;;;14.93;5.88;;;19.60;99.90;;;;;;5054802;28;20037;-67
2023/10/11 13:08:37;;;;;;;12.13;6.30;;;19.60;99.90;;;;;;5054597;28;20033;-69
2023/10/11 13:11:05;;;;;;;13.82;6.40;;;19.60;99.90;;;;;;5054697;28;20052;-69
2023/10/11 13:13:34;;;;;;;13.95;6.13;;;19.50;99.90;;;;;;5054523;28;20051;-68
2023/10/11 13:16:00;;;;;;;12.20;5.80;;;19.50;99.90;;;;;;5038593;28;20481;-68
2023/10/11 13:18:27;;;;;;;11.85;5.90;;;19.50;99.90;;;;;;5054536;28;20474;-68
2023/10/11 13:20:57;;;;;;;11.60;5.63;;;19.50;99.90;;;;;;5021365;28;20059;-69
2023/10/11 13:23:31;;;;;;;12.60;5.93;;;19.50;99.90;;;;;;5037927;28;20041;-69
2023/10/11 13:26:06;;;;;;;12.07;5.65;;;19.40;99.90;;;;;;5038484;28;20068;-69
2023/10/11 13:28:33;;;;;;;13.68;6.15;;;19.30;99.90;;;;;;5038320;28;20055;-68
2023/10/11 13:31:04;;;;;;;10.88;5.70;;;19.30;99.90;;;;;;5054281;28;20037;-69
2023/10/11 13:33:31;;;;;;;11.38;5.60;;;19.40;99.90;;;;;;5054118;28;20041;-69
2023/10/11 13:36:01;;;;;;;13.25;5.70;;;19.40;99.90;;;;;;5054353;28;20047;-69
2023/10/11 13:38:30;;;;;;;12.45;5.80;;;19.30;99.90;;;;;;5054226;28;20132;-69
2023/10/11 13:40:58;;;;;;;13.27;6.03;;;19.30;99.90;;;;;;5053833;28;20098;-68
2023/10/11 13:43:25;;;;;;;10.93;5.72;;;19.20;99.90;;;;;;5020855;28;20511;-69
2023/10/11 13:46:01;;;;;;;12.90;5.97;;;19.20;99.90;;;;;;5036772;28;20128;-68
2023/10/11 13:48:36;;;;;;;11.82;6.20;;;19.20;99.90;;;;;;5053943;28;20544;-68
2023/10/11 13:51:03;;;;;;;13.02;6.40;;;19.20;99.90;;;;;;5054015;28;20597;-69
2023/10/11 13:53:30;;;;;;;13.15;7.03;;;19.20;99.90;;;;;;5037172;28;20052;-69
2023/10/11 13:56:09;;;;;;;13.30;7.43;;;19.20;99.90;;;;;;5053849;28;20047;-68
2023/10/11 13:58:45;;;;;;;16.85;7.05;;;19.10;99.90;;;;;;5023010;28;20123;-70
2023/10/11 14:01:31;;;;;;;13.88;7.35;;;19.20;99.90;;;;;;5053902;28;20048;-68
2023/10/11 14:04:04;;;;;;;14.90;7.55;;;19.20;99.90;;;;;;5037149;28;20094;-68
2023/10/11 14:06:42;;;;;;;14.05;8.18;;;19.30;99.90;;;;;;5022445;28;20090;-69
2023/10/11 14:09:17;;;;;;;14.77;7.85;;;19.30;99.90;;;;;;5038325;28;20040;-69
2023/10/11 14:11:46;;;;;;;14.63;7.60;;;19.30;99.90;;;;;;5037865;28;20037;-68